createdAt,value
2024-03-03T00:00:43.304Z,21.92
2024-03-03T00:03:11.025Z,27.62
2024-03-03T00:05:38.480Z,24.80
2024-03-03T00:08:06.012Z,21.23
2024-03-03T00:10:33.663Z,23.12
2024-03-03T00:13:01.181Z,23.92
2024-03-03T00:15:28.697Z,23.58
2024-03-03T00:17:56.485Z,21.87
2024-03-03T00:20:23.913Z,21.05
2024-03-03T00:22:51.356Z,24.35
2024-03-03T00:25:19.168Z,24.00
2024-03-03T00:27:46.623Z,23.12
2024-03-03T00:30:14.160Z,20.50
2024-03-03T00:32:44.573Z,21.40
2024-03-03T00:35:13.234Z,19.73
2024-03-03T00:37:40.688Z,25.00
2024-03-03T00:40:09.032Z,20.15
2024-03-03T00:42:36.541Z,20.10
2024-03-03T00:45:04.326Z,23.90
2024-03-03T00:47:32.028Z,22.80
2024-03-03T00:49:59.418Z,23.42
2024-03-03T00:52:26.816Z,23.02
2024-03-03T00:54:54.534Z,21.55
2024-03-03T00:57:21.991Z,23.50
2024-03-03T00:59:49.585Z,21.77
2024-03-03T01:02:17.359Z,19.73
2024-03-03T01:04:44.805Z,22.75
2024-03-03T01:07:12.257Z,20.52
2024-03-03T01:09:40.122Z,19.98
2024-03-03T01:12:07.604Z,24.75
2024-03-03T01:14:35.074Z,24.42
2024-03-03T01:17:02.816Z,22.08
2024-03-03T01:19:31.099Z,20.75
2024-03-03T01:21:58.621Z,20.75
2024-03-03T01:24:26.360Z,21.65
2024-03-03T01:26:53.871Z,22.33
2024-03-03T01:29:21.307Z,21.60
2024-03-03T01:31:49.396Z,23.95
2024-03-03T01:34:16.920Z,21.50
2024-03-03T01:36:44.327Z,22.65
2024-03-03T01:39:12.045Z,20.73
2024-03-03T01:41:45.414Z,20.95
2024-03-03T01:44:13.177Z,20.05
2024-03-03T01:46:40.659Z,20.30
2024-03-03T01:49:08.436Z,24.85
2024-03-03T01:51:36.183Z,18.80
2024-03-03T01:54:03.707Z,18.62
2024-03-03T01:56:31.175Z,20.95
2024-03-03T01:58:59.432Z,16.77
2024-03-03T02:01:26.989Z,22.13
2024-03-03T02:03:55.779Z,20.62
2024-03-03T02:06:23.797Z,23.85
2024-03-03T02:08:51.283Z,18.85
2024-03-03T02:11:19.106Z,21.15
2024-03-03T02:13:46.572Z,22.35
2024-03-03T02:16:14.276Z,16.83
2024-03-03T02:18:42.062Z,20.77
2024-03-03T02:21:09.596Z,20.40
2024-03-03T02:23:36.961Z,19.17
2024-03-03T02:26:04.768Z,20.42
2024-03-03T02:28:32.471Z,20.98
2024-03-03T02:30:59.967Z,17.65
2024-03-03T02:33:27.673Z,21.87
2024-03-03T02:35:55.560Z,19.48
2024-03-03T02:38:23.075Z,21.42
2024-03-03T02:40:51.096Z,19.55
2024-03-03T02:43:18.626Z,18.98
2024-03-03T02:45:46.109Z,19.67
2024-03-03T02:48:13.843Z,19.80
2024-03-03T02:50:41.282Z,18.23
2024-03-03T02:53:08.750Z,19.85
2024-03-03T02:55:36.480Z,17.05
2024-03-03T02:58:04.613Z,19.87
2024-03-03T03:00:33.502Z,19.40
2024-03-03T03:03:01.236Z,19.10
2024-03-03T03:05:28.683Z,18.80
2024-03-03T03:07:56.192Z,20.98
2024-03-03T03:10:24.212Z,21.58
2024-03-03T03:12:51.697Z,18.15
2024-03-03T03:15:19.150Z,20.30
2024-03-03T03:17:47.295Z,16.80
2024-03-03T03:20:15.063Z,21.37
2024-03-03T03:22:43.108Z,18.37
2024-03-03T03:25:11.268Z,19.33
2024-03-03T03:27:38.741Z,19.20
2024-03-03T03:30:08.159Z,18.12
2024-03-03T03:32:35.917Z,18.90
2024-03-03T03:35:04.880Z,20.10
2024-03-03T03:37:32.415Z,18.92
2024-03-03T03:40:00.217Z,17.15
2024-03-03T03:42:27.651Z,17.67
2024-03-03T03:44:55.054Z,18.62
2024-03-03T03:47:22.684Z,17.42
2024-03-03T03:49:50.137Z,23.35
2024-03-03T03:52:17.644Z,26.02
2024-03-03T03:54:45.499Z,16.27
2024-03-03T03:57:13.247Z,21.58
2024-03-03T03:59:41.348Z,21.48
2024-03-03T04:02:08.982Z,18.62
2024-03-03T04:04:36.674Z,18.58
2024-03-03T04:07:05.857Z,17.60
2024-03-03T04:09:33.481Z,17.27
2024-03-03T04:12:01.150Z,20.35
2024-03-03T04:14:28.567Z,19.50
2024-03-03T04:16:55.987Z,22.42
2024-03-03T04:19:23.746Z,18.42
2024-03-03T04:21:51.208Z,17.60
2024-03-03T04:24:19.037Z,21.35
2024-03-03T04:26:46.684Z,18.12
2024-03-03T04:29:15.509Z,18.52
2024-03-03T04:31:44.258Z,16.25
2024-03-03T04:34:12.235Z,19.30
2024-03-03T04:36:44.565Z,18.92
2024-03-03T04:39:12.983Z,17.55
2024-03-03T04:41:40.440Z,19.00
2024-03-03T04:44:07.887Z,20.62
2024-03-03T04:46:35.742Z,18.40
2024-03-03T04:49:03.287Z,20.90
2024-03-03T04:51:30.752Z,17.92
2024-03-03T04:53:58.393Z,20.40
2024-03-03T04:56:28.933Z,16.65
2024-03-03T04:58:56.839Z,20.80
2024-03-03T05:01:24.685Z,18.17
2024-03-03T05:03:52.432Z,23.50
2024-03-03T05:06:19.830Z,18.15
2024-03-03T05:08:47.709Z,19.42
2024-03-03T05:11:15.662Z,18.77
2024-03-03T05:13:43.202Z,18.37
2024-03-03T05:16:10.911Z,19.40
2024-03-03T05:18:38.488Z,20.83
2024-03-03T05:21:05.883Z,25.25
2024-03-03T05:23:33.510Z,18.37
2024-03-03T05:26:00.927Z,18.12
2024-03-03T05:28:28.406Z,17.75
2024-03-03T05:30:57.201Z,20.42
2024-03-03T05:33:24.929Z,19.58
2024-03-03T05:35:52.365Z,19.10
2024-03-03T05:38:20.053Z,20.42
2024-03-03T05:40:47.641Z,18.83
2024-03-03T05:43:15.108Z,23.98
2024-03-03T05:45:42.856Z,17.70
2024-03-03T05:48:10.384Z,19.90
2024-03-03T05:50:37.811Z,19.83
2024-03-03T05:53:05.551Z,17.30
2024-03-03T05:55:33.025Z,19.60
2024-03-03T05:58:00.533Z,20.17
2024-03-03T06:00:29.246Z,17.70
2024-03-03T06:02:57.114Z,18.87
2024-03-03T06:05:24.847Z,17.62
2024-03-03T06:07:52.312Z,17.48
2024-03-03T06:10:20.168Z,19.33
2024-03-03T06:12:47.668Z,18.33
2024-03-03T06:15:15.156Z,22.33
2024-03-03T06:17:42.969Z,22.02
2024-03-03T06:20:11.529Z,21.33
2024-03-03T06:22:39.026Z,19.80
2024-03-03T06:25:07.529Z,19.75
2024-03-03T06:27:35.260Z,15.90
2024-03-03T06:30:04.801Z,19.98
2024-03-03T06:32:33.194Z,16.42
2024-03-03T06:35:00.752Z,16.45
2024-03-03T06:37:28.127Z,21.02
2024-03-03T06:39:55.997Z,17.80
2024-03-03T06:42:23.455Z,39.58
2024-03-03T06:44:50.979Z,15.20
2024-03-03T06:47:18.694Z,17.27
2024-03-03T06:49:46.184Z,20.67
2024-03-03T06:52:13.669Z,16.75
2024-03-03T06:54:41.373Z,19.58
2024-03-03T06:57:08.853Z,20.60
2024-03-03T06:59:36.296Z,17.65
2024-03-03T07:02:05.445Z,18.42
2024-03-03T07:04:33.011Z,17.20
2024-03-03T07:07:00.455Z,16.95
2024-03-03T07:09:28.124Z,18.75
2024-03-03T07:11:56.218Z,18.83
2024-03-03T07:14:24.587Z,16.30
2024-03-03T07:16:52.543Z,26.67
2024-03-03T07:19:20.113Z,19.62
2024-03-03T07:21:47.610Z,16.48
2024-03-03T07:24:15.307Z,19.05
2024-03-03T07:26:42.889Z,21.02
2024-03-03T07:29:10.714Z,15.23
2024-03-03T07:31:38.483Z,19.80
2024-03-03T07:34:05.947Z,18.20
2024-03-03T07:36:33.384Z,18.65
2024-03-03T07:39:01.602Z,17.05
2024-03-03T07:41:29.501Z,17.85
2024-03-03T07:43:56.872Z,17.87
2024-03-03T07:46:24.585Z,19.48
2024-03-03T07:48:53.336Z,16.40
2024-03-03T07:51:23.092Z,20.70
2024-03-03T07:53:50.891Z,19.00
2024-03-03T07:56:18.282Z,19.40
2024-03-03T07:58:45.662Z,21.58
2024-03-03T08:01:13.889Z,17.15
2024-03-03T08:03:41.675Z,19.20
2024-03-03T08:06:11.249Z,19.75
2024-03-03T08:08:38.760Z,18.52
2024-03-03T08:11:06.597Z,16.87
2024-03-03T08:13:34.002Z,19.60
2024-03-03T08:16:01.405Z,17.23
2024-03-03T08:18:29.109Z,19.40
2024-03-03T08:20:56.525Z,18.95
2024-03-03T08:23:23.941Z,21.83
2024-03-03T08:25:51.823Z,18.08
2024-03-03T08:28:19.677Z,19.50
2024-03-03T08:30:47.819Z,17.27
2024-03-03T08:33:15.629Z,18.80
2024-03-03T08:35:43.215Z,19.35
2024-03-03T08:38:10.650Z,17.67
2024-03-03T08:40:38.375Z,19.83
2024-03-03T08:43:06.113Z,20.42
2024-03-03T08:45:33.568Z,19.33
2024-03-03T08:48:01.540Z,21.25
2024-03-03T08:50:28.991Z,20.70
2024-03-03T08:52:56.593Z,23.00
2024-03-03T08:55:24.542Z,19.62
2024-03-03T08:57:52.128Z,19.08
2024-03-03T09:00:20.970Z,20.60
2024-03-03T09:02:48.747Z,19.90
2024-03-03T09:05:16.192Z,21.42
2024-03-03T09:07:43.681Z,21.58
2024-03-03T09:10:11.447Z,18.35
2024-03-03T09:12:38.969Z,17.90
2024-03-03T09:15:07.364Z,21.05
2024-03-03T09:17:35.316Z,20.83
2024-03-03T09:20:04.744Z,19.27
2024-03-03T09:22:36.883Z,18.45
2024-03-03T09:25:05.944Z,22.13
2024-03-03T09:27:33.430Z,21.67
2024-03-03T09:30:03.727Z,21.67
2024-03-03T09:32:31.989Z,21.10
2024-03-03T09:34:59.412Z,20.52
2024-03-03T09:37:26.961Z,19.55
2024-03-03T09:39:56.457Z,19.95
2024-03-03T09:42:25.969Z,23.40
2024-03-03T09:44:53.413Z,21.25
2024-03-03T09:47:21.081Z,23.08
2024-03-03T09:49:48.492Z,18.27
2024-03-03T09:52:16.021Z,21.48
2024-03-03T09:54:43.974Z,18.35
2024-03-03T09:57:15.100Z,19.55
2024-03-03T09:59:42.604Z,21.60
2024-03-03T10:02:18.566Z,20.60
2024-03-03T10:04:48.065Z,19.90
2024-03-03T10:07:25.034Z,20.12
2024-03-03T10:10:01.626Z,21.17
2024-03-03T10:12:33.071Z,18.65
2024-03-03T10:15:01.647Z,22.20
2024-03-03T10:17:29.409Z,16.45
2024-03-03T10:20:10.105Z,17.98
2024-03-03T10:22:38.137Z,18.23
2024-03-03T10:25:15.531Z,17.35
2024-03-03T10:27:47.072Z,17.50
2024-03-03T10:30:21.565Z,18.10
2024-03-03T10:32:49.788Z,20.62
2024-03-03T10:35:19.515Z,16.77
2024-03-03T10:37:53.877Z,21.20
2024-03-03T10:40:22.553Z,18.15
2024-03-03T10:42:50.257Z,16.33
2024-03-03T10:45:17.708Z,19.02
2024-03-03T10:47:45.519Z,17.62
2024-03-03T10:50:33.060Z,19.25
2024-03-03T10:53:01.599Z,18.77
2024-03-03T10:55:29.089Z,17.50
2024-03-03T10:57:56.650Z,19.73
2024-03-03T11:00:25.698Z,19.08
2024-03-03T11:02:53.553Z,17.58
2024-03-03T11:05:21.122Z,20.77
2024-03-03T11:07:48.815Z,18.58
2024-03-03T11:10:16.872Z,19.42
2024-03-03T11:12:48.959Z,17.60
2024-03-03T11:15:20.855Z,17.60
2024-03-03T11:17:59.350Z,18.87
2024-03-03T11:20:34.302Z,16.33
2024-03-03T11:23:11.379Z,14.85
2024-03-03T11:25:44.008Z,16.62
2024-03-03T11:28:14.682Z,16.05
2024-03-03T11:30:43.097Z,17.33
2024-03-03T11:33:10.568Z,14.77
2024-03-03T11:35:37.984Z,16.35
2024-03-03T11:38:05.768Z,17.37
2024-03-03T11:40:34.003Z,16.25
2024-03-03T11:43:02.285Z,16.52
2024-03-03T11:45:45.883Z,16.92
2024-03-03T11:48:13.767Z,16.90
2024-03-03T11:50:41.529Z,17.23
2024-03-03T11:53:08.974Z,21.42
2024-03-03T11:55:39.937Z,16.20
2024-03-03T11:58:08.481Z,17.65
2024-03-03T12:00:37.371Z,18.90
2024-03-03T12:03:07.170Z,19.25
2024-03-03T12:05:34.553Z,20.05
2024-03-03T12:08:01.967Z,18.58
2024-03-03T12:10:32.675Z,15.27
2024-03-03T12:13:02.440Z,17.15
2024-03-03T12:15:30.505Z,16.67
2024-03-03T12:17:59.326Z,18.58
2024-03-03T12:20:30.173Z,14.63
2024-03-03T12:22:58.136Z,17.83
2024-03-03T12:25:26.665Z,18.20
2024-03-03T12:27:55.254Z,15.85
2024-03-03T12:30:35.381Z,13.50
2024-03-03T12:33:05.786Z,12.40
2024-03-03T12:35:34.252Z,14.80
2024-03-03T12:38:01.897Z,13.82
2024-03-03T12:40:29.427Z,14.02
2024-03-03T12:42:57.278Z,14.25
2024-03-03T12:45:25.974Z,13.15
2024-03-03T12:47:53.605Z,15.75
2024-03-03T12:50:21.539Z,13.15
2024-03-03T12:52:49.396Z,14.32
2024-03-03T12:55:17.329Z,13.77
2024-03-03T12:57:45.696Z,17.42
2024-03-03T13:00:17.146Z,13.85
2024-03-03T13:02:45.352Z,14.07
2024-03-03T13:05:17.352Z,14.13
2024-03-03T13:07:51.629Z,11.32
2024-03-03T13:10:20.578Z,11.27
2024-03-03T13:12:51.554Z,12.23
2024-03-03T13:15:22.304Z,13.13
2024-03-03T13:18:16.212Z,12.55
2024-03-03T13:20:43.966Z,10.98
2024-03-03T13:23:15.133Z,13.35
2024-03-03T13:25:46.090Z,12.43
2024-03-03T13:28:15.270Z,11.02
2024-03-03T13:30:56.964Z,12.70
2024-03-03T13:33:25.102Z,13.45
2024-03-03T13:35:52.697Z,12.13
2024-03-03T13:38:20.344Z,12.27
2024-03-03T13:40:48.009Z,11.60
2024-03-03T13:43:15.664Z,11.27
2024-03-03T13:45:43.224Z,9.80
2024-03-03T13:48:14.536Z,12.95
2024-03-03T13:50:42.341Z,11.23
2024-03-03T13:53:10.191Z,7.65
2024-03-03T13:55:38.145Z,10.35
2024-03-03T13:58:05.683Z,11.27
2024-03-03T14:00:33.747Z,10.80
2024-03-03T14:03:04.276Z,8.75
2024-03-03T14:05:33.782Z,7.95
2024-03-03T14:08:01.415Z,8.18
2024-03-03T14:10:28.904Z,7.85
2024-03-03T14:12:56.250Z,8.77
2024-03-03T14:15:26.170Z,10.90
2024-03-03T14:17:53.522Z,8.77
2024-03-03T14:20:20.874Z,8.50
2024-03-03T14:22:51.261Z,7.90
2024-03-03T14:25:18.875Z,8.13
2024-03-03T14:27:46.874Z,7.45
2024-03-03T14:30:15.512Z,7.50
2024-03-03T14:32:42.828Z,8.35
2024-03-03T14:35:10.326Z,8.25
2024-03-03T14:37:37.952Z,8.73
2024-03-03T14:40:05.857Z,8.50
2024-03-03T14:42:33.337Z,7.20
2024-03-03T14:45:00.689Z,8.18
2024-03-03T14:47:28.296Z,6.30
2024-03-03T14:49:56.164Z,6.62
2024-03-03T14:52:24.268Z,6.95
2024-03-03T14:54:52.163Z,5.97
2024-03-03T14:57:19.513Z,6.10
2024-03-03T14:59:48.011Z,7.28
2024-03-03T15:02:17.763Z,6.32
2024-03-03T15:04:46.019Z,5.93
2024-03-03T15:07:14.384Z,6.72
2024-03-03T15:09:41.790Z,5.70
2024-03-03T15:12:09.129Z,6.12
2024-03-03T15:14:36.594Z,8.57
2024-03-03T15:17:04.026Z,7.82
2024-03-03T15:19:31.370Z,6.00
2024-03-03T15:21:58.718Z,9.50
2024-03-03T15:24:26.006Z,5.75
2024-03-03T15:26:53.317Z,6.30
2024-03-03T15:29:20.866Z,5.40
2024-03-03T15:31:48.983Z,5.28
2024-03-03T15:34:16.360Z,6.78
2024-03-03T15:36:44.178Z,7.20
2024-03-03T15:39:11.491Z,5.32
2024-03-03T15:41:38.754Z,6.05
2024-03-03T15:44:06.117Z,6.87
2024-03-03T15:46:33.443Z,6.97
2024-03-03T15:49:00.833Z,5.25
2024-03-03T15:51:28.539Z,5.80
2024-03-03T15:53:55.855Z,7.45
2024-03-03T15:56:23.107Z,8.93
2024-03-03T15:58:50.385Z,8.80
2024-03-03T16:01:17.796Z,7.10
2024-03-03T16:03:45.544Z,5.93
2024-03-03T16:06:12.990Z,8.52
2024-03-03T16:08:40.675Z,5.70
2024-03-03T16:11:08.396Z,5.28
2024-03-03T16:13:35.948Z,6.43
2024-03-03T16:16:04.066Z,7.10
2024-03-03T16:18:32.538Z,6.32
2024-03-03T16:20:59.964Z,8.30
2024-03-03T16:23:27.379Z,8.68
2024-03-03T16:25:55.254Z,7.00
2024-03-03T16:28:22.755Z,5.68
2024-03-03T16:30:50.148Z,8.07
2024-03-03T16:33:18.049Z,6.07
2024-03-03T16:35:45.761Z,8.27
2024-03-03T16:38:13.224Z,6.93
2024-03-03T16:40:41.098Z,5.82
2024-03-03T16:43:08.579Z,6.60
2024-03-03T16:45:37.129Z,6.78
2024-03-03T16:48:05.158Z,11.07
2024-03-03T16:50:32.725Z,10.90
2024-03-03T16:53:00.131Z,8.10
2024-03-03T16:55:27.983Z,11.18
2024-03-03T16:57:55.695Z,14.95
2024-03-03T17:00:24.150Z,22.45
2024-03-03T17:02:52.176Z,12.37
2024-03-03T17:05:19.982Z,19.75
2024-03-03T17:07:47.817Z,60.40
2024-03-03T17:10:15.976Z,82.32
2024-03-03T17:12:43.471Z,33.55
2024-03-03T17:15:12.376Z,16.95
2024-03-03T17:17:40.503Z,29.92
2024-03-03T17:20:11.167Z,29.27
2024-03-03T17:22:38.975Z,17.37
2024-03-03T17:25:07.058Z,25.02
2024-03-03T17:27:34.753Z,31.62
2024-03-03T17:30:04.112Z,23.92
2024-03-03T17:32:32.805Z,17.52
2024-03-03T17:35:00.330Z,13.13
2024-03-03T17:37:27.753Z,16.17
2024-03-03T17:39:55.525Z,15.20
2024-03-03T17:42:23.034Z,14.63
2024-03-03T17:44:50.568Z,15.40
2024-03-03T17:47:21.816Z,14.98
2024-03-03T17:49:49.546Z,13.55
2024-03-03T17:52:17.112Z,9.25
2024-03-03T17:54:45.900Z,21.33
2024-03-03T17:57:13.439Z,12.55
2024-03-03T17:59:42.119Z,13.25
2024-03-03T18:02:10.005Z,20.15
2024-03-03T18:04:38.110Z,12.88
2024-03-03T18:07:05.855Z,12.48
2024-03-03T18:09:33.575Z,13.20
2024-03-03T18:12:01.296Z,11.15
2024-03-03T18:14:28.964Z,12.77
2024-03-03T18:16:56.441Z,14.77
2024-03-03T18:19:24.218Z,11.40
2024-03-03T18:21:51.773Z,11.77
2024-03-03T18:24:21.672Z,13.50
2024-03-03T18:26:50.600Z,12.98
2024-03-03T18:29:18.183Z,11.23
2024-03-03T18:31:45.794Z,14.20
2024-03-03T18:34:13.765Z,12.45
2024-03-03T18:36:43.655Z,12.70
2024-03-03T18:39:12.024Z,15.32
2024-03-03T18:41:39.732Z,15.20
2024-03-03T18:44:07.762Z,19.27
2024-03-03T18:46:35.223Z,16.12
2024-03-03T18:49:03.096Z,15.02
2024-03-03T18:51:33.371Z,12.65
2024-03-03T18:54:00.794Z,16.58
2024-03-03T18:56:28.493Z,14.98
2024-03-03T18:58:56.146Z,16.20
2024-03-03T19:01:24.669Z,14.80
2024-03-03T19:03:52.519Z,18.23
2024-03-03T19:06:20.211Z,21.80
2024-03-03T19:08:47.661Z,20.10
2024-03-03T19:11:15.367Z,17.55
2024-03-03T19:13:42.805Z,18.70
2024-03-03T19:16:10.284Z,15.48
2024-03-03T19:18:38.073Z,17.08
2024-03-03T19:21:06.118Z,16.27
2024-03-03T19:23:33.754Z,19.02
2024-03-03T19:26:01.458Z,23.70
2024-03-03T19:28:30.075Z,20.52
2024-03-03T19:30:57.816Z,16.40
2024-03-03T19:33:25.806Z,17.90
2024-03-03T19:35:53.605Z,19.05
2024-03-03T19:38:23.547Z,19.55
2024-03-03T19:40:51.343Z,17.40
2024-03-03T19:43:19.149Z,18.98
2024-03-03T19:45:47.190Z,21.10
2024-03-03T19:48:14.994Z,21.17
2024-03-03T19:50:43.659Z,16.50
2024-03-03T19:53:11.199Z,20.33
2024-03-03T19:55:38.949Z,21.87
2024-03-03T19:58:07.248Z,26.92
2024-03-03T20:00:35.316Z,20.55
2024-03-03T20:03:06.912Z,19.80
2024-03-03T20:05:34.526Z,20.17
2024-03-03T20:08:06.132Z,20.17
2024-03-03T20:10:34.787Z,17.05
2024-03-03T20:13:04.956Z,18.73
2024-03-03T20:15:32.641Z,16.55
2024-03-03T20:18:00.737Z,17.25
2024-03-03T20:20:28.236Z,15.20
2024-03-03T20:22:55.708Z,17.83
2024-03-03T20:25:23.560Z,20.92
2024-03-03T20:27:51.049Z,15.77
2024-03-03T20:30:19.554Z,17.95
2024-03-03T20:32:48.407Z,19.52
2024-03-03T20:35:15.882Z,22.58
2024-03-03T20:37:43.401Z,17.45
2024-03-03T20:40:13.425Z,18.95
2024-03-03T20:42:41.629Z,23.92
2024-03-03T20:45:12.175Z,23.75
2024-03-03T20:47:40.381Z,17.67
2024-03-03T20:50:08.980Z,18.52
2024-03-03T20:52:37.187Z,19.90
2024-03-03T20:55:09.275Z,15.98
2024-03-03T20:57:36.869Z,20.05
2024-03-03T21:00:08.051Z,18.98
2024-03-03T21:02:37.064Z,20.73
2024-03-03T21:05:05.406Z,20.98
2024-03-03T21:07:34.026Z,20.02
2024-03-03T21:10:01.844Z,17.23
2024-03-03T21:12:29.924Z,19.90
2024-03-03T21:14:57.584Z,17.92
2024-03-03T21:17:25.530Z,16.73
2024-03-03T21:19:52.993Z,16.87
2024-03-03T21:22:20.494Z,14.77
2024-03-03T21:24:48.186Z,15.85
2024-03-03T21:27:15.647Z,17.02
2024-03-03T21:29:44.907Z,18.12
2024-03-03T21:32:12.643Z,19.23
2024-03-03T21:34:40.071Z,16.30
2024-03-03T21:37:07.649Z,17.60
2024-03-03T21:39:35.779Z,19.23
2024-03-03T21:42:03.269Z,19.30
2024-03-03T21:44:31.029Z,14.65
2024-03-03T21:46:58.745Z,16.62
2024-03-03T21:49:26.570Z,19.08
2024-03-03T21:51:54.068Z,16.37
2024-03-03T21:54:21.823Z,17.85
2024-03-03T21:56:49.246Z,19.35
2024-03-03T21:59:16.674Z,18.23
2024-03-03T22:01:52.700Z,15.45
2024-03-03T22:04:27.879Z,15.95
2024-03-03T22:06:55.333Z,17.02
2024-03-03T22:09:22.798Z,19.00
2024-03-03T22:11:51.494Z,17.27
2024-03-03T22:14:20.498Z,19.83
2024-03-03T22:16:47.922Z,18.73
2024-03-03T22:19:15.650Z,15.95
2024-03-03T22:21:43.101Z,17.87
2024-03-03T22:24:10.525Z,16.65
2024-03-03T22:26:41.721Z,15.43
2024-03-03T22:29:10.726Z,17.92
2024-03-03T22:31:38.485Z,17.73
2024-03-03T22:34:06.009Z,16.12
2024-03-03T22:36:33.504Z,15.18
2024-03-03T22:39:01.147Z,15.23
2024-03-03T22:41:28.584Z,13.10
2024-03-03T22:43:56.003Z,16.65
2024-03-03T22:46:23.657Z,16.85
2024-03-03T22:48:51.110Z,16.48
2024-03-03T22:51:18.597Z,15.65
2024-03-03T22:53:46.516Z,18.33
2024-03-03T22:56:13.913Z,12.55
2024-03-03T22:58:41.846Z,14.90
2024-03-03T23:01:10.508Z,14.30
2024-03-03T23:03:38.024Z,14.93
2024-03-03T23:06:11.751Z,15.93
2024-03-03T23:08:39.460Z,18.20
2024-03-03T23:11:06.949Z,15.38
2024-03-03T23:13:34.428Z,15.77
2024-03-03T23:16:02.262Z,15.93
2024-03-03T23:18:29.652Z,15.30
2024-03-03T23:20:57.131Z,17.25
2024-03-03T23:23:24.908Z,13.98
2024-03-03T23:25:52.356Z,16.40
2024-03-03T23:28:21.668Z,15.63
2024-03-03T23:30:49.502Z,16.45
2024-03-03T23:33:16.949Z,16.45
2024-03-03T23:35:44.456Z,20.15
2024-03-03T23:38:12.088Z,20.83
2024-03-03T23:40:39.681Z,19.95
2024-03-03T23:43:07.309Z,16.48
2024-03-03T23:45:35.009Z,19.65
2024-03-03T23:48:02.572Z,21.75
2024-03-03T23:50:30.046Z,20.37
2024-03-03T23:52:58.435Z,18.98
2024-03-03T23:55:26.001Z,20.02
2024-03-03T23:57:53.565Z,15.70
